createdAt,value
2019-01-31T00:00:45.568Z,40.74
2019-01-31T00:01:45.758Z,40.76
2019-01-31T00:02:45.495Z,40.74
2019-01-31T00:03:45.373Z,40.74
2019-01-31T00:04:45.545Z,40.73
2019-01-31T00:05:45.691Z,40.72
2019-01-31T00:06:45.784Z,40.76
2019-01-31T00:07:45.377Z,40.73
2019-01-31T00:08:46.701Z,40.73
2019-01-31T00:09:45.677Z,40.72
2019-01-31T00:10:45.937Z,40.7
2019-01-31T00:11:45.543Z,40.67
2019-01-31T00:12:45.498Z,40.72
2019-01-31T00:13:45.573Z,40.7
2019-01-31T00:14:45.543Z,40.74
2019-01-31T00:15:45.873Z,40.71
2019-01-31T00:16:46.100Z,40.71
2019-01-31T00:17:45.559Z,40.71
2019-01-31T00:18:45.565Z,40.75
2019-01-31T00:19:48.001Z,40.71
2019-01-31T00:20:45.584Z,40.75
2019-01-31T00:21:45.731Z,40.78
2019-01-31T00:22:46.837Z,40.74
2019-01-31T00:23:45.605Z,40.77
2019-01-31T00:24:45.838Z,40.74
2019-01-31T00:25:45.501Z,40.73
2019-01-31T00:26:46.358Z,40.7
2019-01-31T00:27:45.655Z,40.72
2019-01-31T00:28:45.606Z,40.76
2019-01-31T00:29:45.612Z,40.71
2019-01-31T00:30:45.577Z,40.67
2019-01-31T00:31:45.541Z,40.71
2019-01-31T00:32:45.528Z,40.73
2019-01-31T00:33:45.385Z,40.73
2019-01-31T00:34:45.509Z,40.71
2019-01-31T00:35:45.799Z,40.72
2019-01-31T00:36:45.499Z,40.72
2019-01-31T00:37:45.826Z,40.74
2019-01-31T00:38:57.419Z,40.7
2019-01-31T00:39:45.942Z,40.77
2019-01-31T00:40:45.767Z,40.73
2019-01-31T00:41:45.749Z,40.76
2019-01-31T00:42:45.522Z,40.74
2019-01-31T00:43:45.946Z,40.78
2019-01-31T00:44:45.865Z,40.78
2019-01-31T00:45:45.430Z,40.75
2019-01-31T00:46:45.540Z,40.76
2019-01-31T00:47:45.615Z,40.76
2019-01-31T00:48:45.750Z,40.75
2019-01-31T00:49:45.541Z,40.72
2019-01-31T00:50:45.912Z,40.7
2019-01-31T00:51:45.515Z,40.72
2019-01-31T00:52:45.568Z,40.74
2019-01-31T00:53:45.639Z,40.68
2019-01-31T00:54:45.527Z,40.75
2019-01-31T00:55:45.941Z,40.67
2019-01-31T00:56:45.977Z,40.74
2019-01-31T00:57:45.413Z,40.74
2019-01-31T00:58:45.977Z,40.72
2019-01-31T00:59:45.416Z,40.71
2019-01-31T01:00:45.396Z,40.72
2019-01-31T01:01:45.726Z,40.72
2019-01-31T01:02:45.447Z,40.69
2019-01-31T01:03:45.820Z,40.71
2019-01-31T01:04:45.926Z,40.69
2019-01-31T01:05:45.808Z,40.71
2019-01-31T01:06:45.547Z,40.72
2019-01-31T01:07:45.521Z,40.67
2019-01-31T01:08:45.653Z,40.73
2019-01-31T01:09:45.959Z,40.72
2019-01-31T01:10:45.660Z,40.7
2019-01-31T01:11:45.745Z,40.7
2019-01-31T01:12:45.769Z,40.7
2019-01-31T01:13:47.254Z,40.69
2019-01-31T01:14:45.855Z,40.75
2019-01-31T01:15:47.473Z,40.69
2019-01-31T01:16:45.473Z,40.74
2019-01-31T01:17:45.735Z,40.63
2019-01-31T01:18:45.525Z,40.67
2019-01-31T01:19:45.492Z,40.66
2019-01-31T01:20:45.346Z,40.7
2019-01-31T01:21:45.936Z,40.67
2019-01-31T01:22:45.481Z,40.71
2019-01-31T01:23:45.846Z,40.71
2019-01-31T01:24:45.845Z,40.66
2019-01-31T01:25:45.402Z,40.65
2019-01-31T01:26:45.974Z,40.66
2019-01-31T01:27:45.873Z,40.64
2019-01-31T01:28:45.354Z,40.7
2019-01-31T01:29:45.551Z,40.71
2019-01-31T01:30:45.919Z,40.72
2019-01-31T01:31:45.498Z,40.67
2019-01-31T01:32:45.874Z,40.67
2019-01-31T01:33:45.819Z,40.69
2019-01-31T01:34:45.462Z,40.67
2019-01-31T01:35:45.832Z,40.67
2019-01-31T01:36:46.309Z,40.73
2019-01-31T01:37:45.556Z,40.71
2019-01-31T01:38:45.645Z,40.71
2019-01-31T01:39:47.351Z,40.6
2019-01-31T01:40:46.538Z,40.64
2019-01-31T01:41:45.421Z,40.68
2019-01-31T01:42:45.626Z,40.74
2019-01-31T01:43:45.492Z,40.68
2019-01-31T01:44:45.589Z,40.73
2019-01-31T01:45:45.700Z,40.68
2019-01-31T01:46:45.515Z,40.67
2019-01-31T01:47:45.376Z,40.66
2019-01-31T01:48:45.727Z,40.68
2019-01-31T01:49:45.358Z,40.65
2019-01-31T01:50:45.514Z,40.61
2019-01-31T01:51:45.753Z,40.64
2019-01-31T01:52:45.545Z,40.68
2019-01-31T01:53:45.756Z,40.62
2019-01-31T01:54:45.937Z,40.61
2019-01-31T01:55:45.769Z,40.62
2019-01-31T01:56:45.477Z,40.63
2019-01-31T01:57:46.000Z,40.65
2019-01-31T01:58:45.693Z,40.61
2019-01-31T01:59:45.592Z,40.62
2019-01-31T02:00:45.542Z,40.61
2019-01-31T02:01:45.801Z,40.65
2019-01-31T02:02:45.454Z,40.65
2019-01-31T02:03:45.666Z,40.66
2019-01-31T02:04:45.534Z,40.68
2019-01-31T02:05:45.578Z,40.67
2019-01-31T02:06:45.409Z,40.61
2019-01-31T02:07:45.623Z,40.71
2019-01-31T02:08:45.255Z,40.67
2019-01-31T02:09:45.402Z,40.69
2019-01-31T02:10:45.479Z,40.66
2019-01-31T02:11:45.574Z,40.69
2019-01-31T02:12:45.631Z,40.61
2019-01-31T02:13:45.513Z,40.68
2019-01-31T02:14:45.907Z,40.64
2019-01-31T02:15:45.338Z,40.67
2019-01-31T02:16:46.110Z,40.64
2019-01-31T02:17:45.541Z,40.69
2019-01-31T02:18:45.436Z,40.7
2019-01-31T02:19:45.525Z,40.6
2019-01-31T02:20:46.152Z,40.72
2019-01-31T02:21:45.398Z,40.68
2019-01-31T02:22:46.151Z,40.65
2019-01-31T02:23:45.968Z,40.65
2019-01-31T02:24:45.791Z,40.64
2019-01-31T02:25:45.461Z,40.65
2019-01-31T02:26:45.366Z,40.7
2019-01-31T02:27:45.889Z,40.67
2019-01-31T02:28:45.441Z,40.6
2019-01-31T02:29:45.454Z,40.68
2019-01-31T02:30:45.908Z,40.68
2019-01-31T02:31:45.583Z,40.64
2019-01-31T02:32:47.174Z,40.62
2019-01-31T02:33:45.592Z,40.7
2019-01-31T02:34:45.607Z,40.69
2019-01-31T02:35:45.957Z,40.65
2019-01-31T02:36:45.394Z,40.65
2019-01-31T02:37:45.464Z,40.63
2019-01-31T02:38:45.449Z,40.74
2019-01-31T02:39:45.785Z,40.62
2019-01-31T02:40:45.410Z,40.64
2019-01-31T02:41:45.536Z,40.66
2019-01-31T02:42:45.925Z,40.63
2019-01-31T02:43:45.736Z,40.64
2019-01-31T02:44:45.814Z,40.61
2019-01-31T02:45:45.687Z,40.64
2019-01-31T02:46:45.432Z,40.62
2019-01-31T02:47:45.886Z,40.63
2019-01-31T02:48:45.524Z,40.62
2019-01-31T02:49:45.459Z,40.58
2019-01-31T02:50:45.931Z,40.6
2019-01-31T02:51:45.441Z,40.54
2019-01-31T02:52:45.432Z,40.64
2019-01-31T02:53:45.871Z,40.63
2019-01-31T02:54:45.315Z,40.6
2019-01-31T02:55:45.994Z,40.63
2019-01-31T02:56:45.848Z,40.64
2019-01-31T02:57:46.010Z,40.63
2019-01-31T02:58:45.502Z,40.64
2019-01-31T02:59:45.752Z,40.64
2019-01-31T03:00:45.406Z,40.63
2019-01-31T03:01:45.934Z,40.67
2019-01-31T03:02:45.848Z,40.6
2019-01-31T03:03:45.690Z,40.64
2019-01-31T03:04:45.374Z,40.64
2019-01-31T03:05:45.868Z,40.65
2019-01-31T03:06:46.724Z,40.61
2019-01-31T03:07:45.520Z,40.64
2019-01-31T03:08:45.266Z,40.63
2019-01-31T03:09:55.405Z,40.62
2019-01-31T03:10:45.690Z,40.63
2019-01-31T03:11:45.795Z,40.62
2019-01-31T03:12:45.536Z,40.61
2019-01-31T03:13:45.814Z,40.66
2019-01-31T03:14:45.925Z,40.63
2019-01-31T03:15:46.347Z,40.66
2019-01-31T03:16:45.567Z,40.65
2019-01-31T03:17:46.009Z,40.61
2019-01-31T03:18:45.401Z,40.59
2019-01-31T03:19:47.564Z,40.65
2019-01-31T03:20:45.253Z,40.57
2019-01-31T03:21:45.372Z,40.62
2019-01-31T03:22:45.523Z,40.66
2019-01-31T03:23:45.577Z,40.59
2019-01-31T03:24:45.779Z,40.62
2019-01-31T03:25:46.117Z,40.61
2019-01-31T03:26:45.300Z,40.52
2019-01-31T03:27:45.776Z,40.6
2019-01-31T03:28:45.450Z,40.57
2019-01-31T03:29:45.403Z,40.61
2019-01-31T03:30:45.605Z,40.6
2019-01-31T03:31:45.895Z,40.68
2019-01-31T03:32:47.310Z,40.62
2019-01-31T03:33:45.657Z,40.61
2019-01-31T03:34:45.612Z,40.6
2019-01-31T03:35:45.738Z,40.65
2019-01-31T03:36:45.788Z,40.67
2019-01-31T03:37:45.374Z,40.63
2019-01-31T03:38:45.456Z,40.6
2019-01-31T03:39:45.618Z,40.62
2019-01-31T03:40:45.567Z,40.59
2019-01-31T03:41:45.463Z,40.6
2019-01-31T03:42:45.897Z,40.64
2019-01-31T03:43:45.542Z,40.64
2019-01-31T03:44:45.501Z,40.61
2019-01-31T03:45:45.373Z,40.56
2019-01-31T03:46:45.347Z,40.69
2019-01-31T03:47:45.761Z,40.58
2019-01-31T03:48:45.394Z,40.58
2019-01-31T03:49:45.849Z,40.61
2019-01-31T03:50:45.459Z,40.61
2019-01-31T03:51:45.446Z,40.64
2019-01-31T03:52:45.411Z,40.6
2019-01-31T03:53:45.584Z,40.6
2019-01-31T03:54:45.394Z,40.64
2019-01-31T03:55:45.476Z,40.65
2019-01-31T03:56:45.211Z,40.65
2019-01-31T03:57:45.385Z,40.63
2019-01-31T03:58:45.521Z,40.62
2019-01-31T03:59:45.530Z,40.58
2019-01-31T04:00:45.522Z,40.64
2019-01-31T04:01:47.404Z,40.6
2019-01-31T04:02:45.853Z,40.6
2019-01-31T04:03:45.689Z,40.6
2019-01-31T04:04:45.454Z,40.57
2019-01-31T04:05:45.469Z,40.56
2019-01-31T04:06:45.698Z,40.56
2019-01-31T04:07:45.815Z,40.54
2019-01-31T04:08:45.613Z,40.59
2019-01-31T04:09:45.708Z,40.61
2019-01-31T04:10:45.967Z,40.6
2019-01-31T04:11:45.662Z,40.62
2019-01-31T04:12:45.560Z,40.56
2019-01-31T04:13:45.395Z,40.6
2019-01-31T04:14:45.470Z,40.54
2019-01-31T04:15:45.537Z,40.67
2019-01-31T04:16:45.347Z,40.59
2019-01-31T04:17:46.086Z,40.54
2019-01-31T04:18:46.808Z,40.63
2019-01-31T04:19:45.425Z,40.63
2019-01-31T04:20:45.429Z,40.61
2019-01-31T04:21:45.595Z,40.62
2019-01-31T04:22:45.801Z,40.56
2019-01-31T04:23:45.946Z,40.63
2019-01-31T04:24:45.400Z,40.55
2019-01-31T04:25:45.612Z,40.55
2019-01-31T04:26:45.830Z,40.57
2019-01-31T04:27:45.864Z,40.55
2019-01-31T04:28:47.315Z,40.58
2019-01-31T04:29:45.227Z,40.52
2019-01-31T04:30:45.379Z,40.57
2019-01-31T04:31:45.500Z,40.57
2019-01-31T04:32:45.384Z,40.56
2019-01-31T04:33:45.602Z,40.55
2019-01-31T04:34:45.473Z,40.56
2019-01-31T04:35:45.404Z,40.61
2019-01-31T04:36:45.391Z,40.51
2019-01-31T04:37:45.424Z,40.6
2019-01-31T04:38:45.333Z,40.57
2019-01-31T04:39:45.373Z,40.58
2019-01-31T04:40:45.706Z,40.55
2019-01-31T04:41:45.234Z,40.52
2019-01-31T04:42:45.789Z,40.5
2019-01-31T04:43:45.742Z,40.61
2019-01-31T04:44:45.954Z,40.59
2019-01-31T04:45:45.536Z,40.57
2019-01-31T04:46:45.680Z,40.64
2019-01-31T04:47:45.765Z,40.65
2019-01-31T04:48:45.721Z,40.69
2019-01-31T04:49:45.832Z,40.72
2019-01-31T04:50:46.215Z,40.7
2019-01-31T04:51:46.516Z,40.69
2019-01-31T04:52:45.579Z,40.7
2019-01-31T04:53:45.347Z,40.72
2019-01-31T04:54:45.235Z,40.65
2019-01-31T04:55:45.452Z,40.66
2019-01-31T04:56:46.375Z,40.69
2019-01-31T04:57:45.215Z,40.71
2019-01-31T04:58:47.259Z,40.63
2019-01-31T04:59:45.761Z,40.62
2019-01-31T05:00:46.063Z,40.61
2019-01-31T05:01:45.680Z,40.59
2019-01-31T05:02:46.011Z,40.65
2019-01-31T05:03:45.443Z,40.63
2019-01-31T05:04:45.950Z,40.7
2019-01-31T05:05:46.113Z,40.63
2019-01-31T05:06:45.518Z,40.63
2019-01-31T05:07:45.578Z,40.71
2019-01-31T05:08:45.429Z,40.68
2019-01-31T05:09:45.318Z,40.65
2019-01-31T05:10:45.503Z,40.71
2019-01-31T05:11:45.388Z,40.73
2019-01-31T05:12:45.803Z,40.74
2019-01-31T05:13:45.431Z,40.74
2019-01-31T05:14:45.322Z,40.73
2019-01-31T05:15:45.316Z,40.72
2019-01-31T05:16:45.994Z,40.72
2019-01-31T05:17:45.325Z,40.72
2019-01-31T05:18:45.789Z,40.62
2019-01-31T05:19:45.300Z,40.66
2019-01-31T05:20:45.488Z,40.69
2019-01-31T05:21:45.431Z,40.67
2019-01-31T05:22:45.547Z,40.64
2019-01-31T05:23:45.602Z,40.63
2019-01-31T05:24:45.987Z,40.59
2019-01-31T05:25:45.363Z,40.62
2019-01-31T05:26:45.444Z,40.56
2019-01-31T05:27:45.803Z,40.54
2019-01-31T05:28:45.652Z,40.56
2019-01-31T05:29:45.458Z,40.47
2019-01-31T05:30:45.287Z,40.53
2019-01-31T05:31:45.386Z,40.54
2019-01-31T05:32:45.511Z,40.5
2019-01-31T05:33:45.504Z,40.51
2019-01-31T05:34:45.463Z,40.5
2019-01-31T05:35:45.509Z,40.47
2019-01-31T05:36:45.321Z,40.5
2019-01-31T05:37:45.342Z,40.47
2019-01-31T05:38:45.600Z,40.51
2019-01-31T05:39:45.550Z,40.47
2019-01-31T05:40:56.268Z,40.5
2019-01-31T05:41:46.181Z,40.47
2019-01-31T05:42:45.979Z,40.43
2019-01-31T05:43:45.565Z,40.45
2019-01-31T05:44:45.536Z,40.41
2019-01-31T05:45:46.028Z,40.47
2019-01-31T05:46:45.414Z,40.44
2019-01-31T05:47:45.850Z,40.45
2019-01-31T05:48:45.429Z,40.42
2019-01-31T05:49:45.412Z,40.43
2019-01-31T05:50:45.800Z,40.44
2019-01-31T05:51:45.432Z,40.46
2019-01-31T05:52:45.459Z,40.42
2019-01-31T05:53:45.550Z,40.41
2019-01-31T05:54:45.442Z,40.41
2019-01-31T05:55:45.396Z,40.45
2019-01-31T05:56:45.477Z,40.44
2019-01-31T05:57:45.356Z,40.41
2019-01-31T05:58:45.875Z,40.43
2019-01-31T05:59:45.299Z,40.37
2019-01-31T06:00:45.386Z,40.42
2019-01-31T06:01:46.183Z,40.43
2019-01-31T06:02:45.488Z,40.43
2019-01-31T06:03:46.117Z,40.43
2019-01-31T06:04:45.836Z,40.42
2019-01-31T06:05:45.823Z,40.43
2019-01-31T06:06:46.598Z,40.43
2019-01-31T06:07:45.553Z,40.39
2019-01-31T06:08:45.520Z,40.38
2019-01-31T06:09:45.397Z,40.45
2019-01-31T06:10:45.497Z,40.43
2019-01-31T06:11:45.419Z,40.44
2019-01-31T06:12:45.411Z,40.45
2019-01-31T06:13:45.575Z,40.42
2019-01-31T06:14:45.867Z,40.45
2019-01-31T06:15:45.721Z,40.42
2019-01-31T06:16:45.272Z,40.41
2019-01-31T06:17:45.563Z,40.34
2019-01-31T06:18:45.824Z,40.34
2019-01-31T06:19:45.296Z,40.37
2019-01-31T06:20:45.298Z,40.41
2019-01-31T06:21:45.738Z,40.35
2019-01-31T06:22:45.515Z,40.39
2019-01-31T06:23:45.866Z,40.38
2019-01-31T06:24:45.531Z,40.36
2019-01-31T06:25:45.678Z,40.38
2019-01-31T06:26:45.768Z,40.42
2019-01-31T06:27:45.651Z,40.38
2019-01-31T06:28:45.386Z,40.4
2019-01-31T06:29:45.617Z,40.36
2019-01-31T06:30:45.359Z,40.39
2019-01-31T06:31:45.640Z,40.42
2019-01-31T06:32:45.543Z,40.4
2019-01-31T06:33:45.630Z,40.33
2019-01-31T06:34:45.949Z,40.31
2019-01-31T06:35:45.411Z,40.33
2019-01-31T06:36:45.375Z,40.38
2019-01-31T06:37:46.426Z,40.38
2019-01-31T06:38:45.723Z,40.37
2019-01-31T06:39:45.302Z,40.42
2019-01-31T06:40:45.797Z,40.39
2019-01-31T06:41:45.584Z,40.41
2019-01-31T06:42:46.299Z,40.36
2019-01-31T06:43:45.530Z,40.35
2019-01-31T06:44:46.120Z,40.31
2019-01-31T06:45:45.252Z,40.37
2019-01-31T06:46:45.527Z,40.35
2019-01-31T06:47:45.356Z,40.38
2019-01-31T06:48:45.413Z,40.35
2019-01-31T06:49:45.829Z,40.41
2019-01-31T06:50:45.404Z,40.37
2019-01-31T06:51:45.759Z,40.32
2019-01-31T06:52:45.664Z,40.31
2019-01-31T06:53:45.745Z,40.37
2019-01-31T06:54:45.258Z,40.39
2019-01-31T06:55:45.751Z,40.36
2019-01-31T06:56:45.789Z,40.31
2019-01-31T06:57:45.298Z,40.29
2019-01-31T06:58:45.585Z,40.38
2019-01-31T06:59:45.803Z,40.36
2019-01-31T07:00:45.811Z,40.34
2019-01-31T07:01:45.316Z,40.25
2019-01-31T07:02:45.438Z,40.31
2019-01-31T07:03:47.235Z,40.34
2019-01-31T07:04:45.468Z,40.37
2019-01-31T07:05:46.055Z,40.38
2019-01-31T07:06:45.644Z,40.36
2019-01-31T07:07:45.988Z,40.41
2019-01-31T07:08:45.241Z,40.37
2019-01-31T07:09:45.568Z,40.39
2019-01-31T07:10:45.582Z,40.35
2019-01-31T07:11:45.271Z,40.41
2019-01-31T07:12:45.574Z,40.37
2019-01-31T07:13:47.497Z,40.38
2019-01-31T07:14:45.618Z,40.33
2019-01-31T07:15:45.191Z,40.41
2019-01-31T07:16:45.391Z,40.37
2019-01-31T07:17:45.471Z,40.32
2019-01-31T07:18:45.120Z,40.4
2019-01-31T07:19:45.724Z,40.43
2019-01-31T07:20:45.379Z,40.41
2019-01-31T07:21:45.192Z,40.38
2019-01-31T07:22:45.566Z,40.38
2019-01-31T07:23:46.377Z,40.34
2019-01-31T07:24:45.572Z,40.34
2019-01-31T07:25:45.570Z,40.37
2019-01-31T07:26:45.258Z,40.42
2019-01-31T07:27:45.690Z,40.41
2019-01-31T07:28:45.890Z,40.42
2019-01-31T07:29:45.484Z,40.39
2019-01-31T07:30:45.609Z,40.29
2019-01-31T07:31:45.483Z,40.34
2019-01-31T07:32:47.078Z,40.33
2019-01-31T07:33:45.284Z,40.34
2019-01-31T07:34:45.550Z,40.36
2019-01-31T07:35:45.643Z,40.33
2019-01-31T07:36:45.393Z,40.34
2019-01-31T07:37:45.463Z,40.35
2019-01-31T07:38:45.492Z,40.37
2019-01-31T07:39:45.440Z,40.36
2019-01-31T07:40:45.154Z,40.32
2019-01-31T07:41:45.579Z,40.31
2019-01-31T07:42:45.453Z,40.4
2019-01-31T07:43:47.118Z,40.34
2019-01-31T07:44:45.511Z,40.38
2019-01-31T07:45:45.958Z,40.29
2019-01-31T07:46:45.301Z,40.42
2019-01-31T07:47:45.717Z,40.41
2019-01-31T07:48:45.610Z,40.4
2019-01-31T07:49:45.864Z,40.36
2019-01-31T07:50:45.751Z,40.25
2019-01-31T07:51:45.237Z,40.28
2019-01-31T07:52:45.889Z,40.33
2019-01-31T07:53:47.311Z,40.36
2019-01-31T07:54:45.578Z,40.34
2019-01-31T07:55:45.190Z,40.33
2019-01-31T07:56:45.877Z,40.28
2019-01-31T07:57:45.403Z,40.34
2019-01-31T07:58:45.524Z,40.34
2019-01-31T07:59:45.235Z,40.36
2019-01-31T08:00:45.894Z,40.32
2019-01-31T08:01:46.273Z,40.37
2019-01-31T08:02:45.557Z,40.4
2019-01-31T08:03:45.420Z,40.37
2019-01-31T08:04:45.433Z,40.36
2019-01-31T08:05:45.836Z,40.29
2019-01-31T08:06:45.318Z,40.43
2019-01-31T08:07:45.437Z,40.31
2019-01-31T08:08:45.341Z,40.34
2019-01-31T08:09:45.265Z,40.34
2019-01-31T08:10:45.799Z,40.36
2019-01-31T08:11:53.166Z,40.29
2019-01-31T08:12:45.714Z,40.34
2019-01-31T08:13:45.314Z,40.38
2019-01-31T08:14:45.858Z,40.45
2019-01-31T08:15:47.066Z,40.4
2019-01-31T08:16:46.179Z,40.4
2019-01-31T08:17:45.750Z,40.27
2019-01-31T08:18:45.368Z,40.41
2019-01-31T08:19:45.470Z,40.27
2019-01-31T08:20:45.568Z,40.4
2019-01-31T08:21:46.306Z,40.33
2019-01-31T08:22:45.812Z,40.4
2019-01-31T08:23:45.592Z,40.37
2019-01-31T08:24:45.404Z,40.33
2019-01-31T08:25:45.917Z,40.31
2019-01-31T08:26:45.491Z,40.4
2019-01-31T08:27:45.724Z,40.36
2019-01-31T08:28:45.231Z,40.37
2019-01-31T08:29:45.353Z,40.37
2019-01-31T08:30:47.340Z,40.35
2019-01-31T08:31:45.559Z,40.28
2019-01-31T08:32:45.274Z,40.33
2019-01-31T08:33:45.557Z,40.32
2019-01-31T08:34:45.646Z,40.31
2019-01-31T08:35:45.539Z,40.28
2019-01-31T08:36:45.602Z,40.41
2019-01-31T08:37:45.388Z,40.29
2019-01-31T08:38:45.526Z,40.31
2019-01-31T08:39:45.134Z,40.33
2019-01-31T08:40:47.220Z,40.31
2019-01-31T08:41:45.910Z,40.31
2019-01-31T08:42:45.603Z,40.37
2019-01-31T08:43:47.034Z,40.37
2019-01-31T08:44:45.632Z,40.36
2019-01-31T08:45:45.257Z,40.39
2019-01-31T08:46:45.358Z,40.31
2019-01-31T08:47:45.186Z,40.35
2019-01-31T08:48:45.556Z,40.3
2019-01-31T08:49:45.409Z,40.53
2019-01-31T08:50:45.475Z,40.44
2019-01-31T08:51:45.317Z,40.93
2019-01-31T08:52:45.963Z,41.23
2019-01-31T08:53:45.140Z,41.37
2019-01-31T08:54:45.284Z,41.37
2019-01-31T08:55:47.939Z,41.24
2019-01-31T08:56:45.461Z,41.33
2019-01-31T08:57:47.940Z,41.32
2019-01-31T08:58:45.845Z,41.29
2019-01-31T08:59:45.264Z,41.25
2019-01-31T09:00:45.287Z,41.28
2019-01-31T09:01:45.435Z,41.35
2019-01-31T09:02:45.273Z,41.33
2019-01-31T09:03:45.308Z,41.29
2019-01-31T09:04:45.255Z,41.3
2019-01-31T09:05:45.475Z,41.38
2019-01-31T09:06:45.133Z,41.33
2019-01-31T09:07:45.509Z,41.4
2019-01-31T09:08:45.622Z,41.35
2019-01-31T09:09:45.648Z,41.37
2019-01-31T09:10:46.226Z,41.45
2019-01-31T09:11:45.431Z,41.46
2019-01-31T09:12:45.827Z,41.37
2019-01-31T09:13:45.431Z,41.46
2019-01-31T09:14:45.517Z,41.47
2019-01-31T09:15:45.430Z,41.41
2019-01-31T09:16:45.242Z,41.39
2019-01-31T09:17:45.496Z,41.45
2019-01-31T09:18:45.495Z,41.38
2019-01-31T09:19:45.597Z,41.06
2019-01-31T09:20:45.394Z,40.93
2019-01-31T09:21:47.060Z,40.9
2019-01-31T09:22:45.443Z,40.77
2019-01-31T09:23:45.811Z,40.74
2019-01-31T09:24:45.359Z,40.72
2019-01-31T09:25:47.243Z,40.71
2019-01-31T09:26:45.402Z,40.61
2019-01-31T09:27:45.449Z,40.63
2019-01-31T09:28:45.158Z,40.59
2019-01-31T09:29:45.650Z,40.8
2019-01-31T09:30:45.223Z,41.23
2019-01-31T09:31:45.635Z,41.29
2019-01-31T09:32:45.599Z,41.26
2019-01-31T09:33:45.472Z,41.28
2019-01-31T09:34:45.204Z,41.25
2019-01-31T09:35:45.820Z,41.29
2019-01-31T09:36:46.953Z,41.29
2019-01-31T09:37:46.303Z,41.33
2019-01-31T09:38:45.523Z,41.27
2019-01-31T09:39:45.160Z,41.24
2019-01-31T09:40:45.419Z,41.45
2019-01-31T09:41:45.218Z,41.34
2019-01-31T09:42:45.370Z,41.24
2019-01-31T09:43:45.652Z,41.13
2019-01-31T09:44:45.570Z,41.33
2019-01-31T09:45:45.558Z,41.19
2019-01-31T09:46:45.459Z,41.38
2019-01-31T09:47:45.798Z,41.21
2019-01-31T09:48:45.778Z,41.19
2019-01-31T09:49:45.484Z,41.22
2019-01-31T09:50:45.987Z,41.4
2019-01-31T09:51:45.374Z,41.19
2019-01-31T09:52:45.912Z,41.17
2019-01-31T09:53:45.836Z,41.16
2019-01-31T09:54:45.330Z,41.05
2019-01-31T09:55:45.229Z,41.17
2019-01-31T09:56:45.233Z,41.2
2019-01-31T09:57:45.021Z,41.38
2019-01-31T09:58:45.495Z,41.28
2019-01-31T09:59:45.574Z,41.14
2019-01-31T10:00:45.361Z,41.26
2019-01-31T10:01:47.022Z,41.2
2019-01-31T10:02:45.788Z,41.37
2019-01-31T10:03:45.100Z,41.23
2019-01-31T10:04:45.873Z,41.45
2019-01-31T10:05:45.384Z,41.49
2019-01-31T10:06:45.740Z,41.43
2019-01-31T10:07:46.640Z,41.18
2019-01-31T10:08:45.625Z,41.21
2019-01-31T10:09:45.841Z,41.4
2019-01-31T10:10:47.027Z,41.13
2019-01-31T10:11:46.229Z,41.26
2019-01-31T10:12:46.529Z,41.4
2019-01-31T10:13:46.355Z,41.18
2019-01-31T10:14:46.133Z,41.64
2019-01-31T10:15:46.166Z,41.21
2019-01-31T10:16:48.001Z,41.4
2019-01-31T10:17:45.876Z,41.08
2019-01-31T10:18:45.822Z,41.34
2019-01-31T10:19:45.926Z,41.28
2019-01-31T10:20:47.551Z,41.54
2019-01-31T10:21:46.022Z,41.16
2019-01-31T10:22:46.556Z,41.36
2019-01-31T10:23:45.847Z,41.49
2019-01-31T10:24:46.146Z,41.01
2019-01-31T10:25:45.308Z,40.97
2019-01-31T10:26:46.438Z,40.86
2019-01-31T10:27:45.624Z,40.88
2019-01-31T10:28:45.884Z,40.84
2019-01-31T10:29:45.939Z,40.88
2019-01-31T10:30:45.590Z,40.81
2019-01-31T10:31:46.204Z,40.79
2019-01-31T10:32:45.594Z,40.81
2019-01-31T10:33:45.369Z,40.73
2019-01-31T10:34:45.516Z,40.73
2019-01-31T10:35:46.887Z,40.73
2019-01-31T10:36:45.935Z,40.67
2019-01-31T10:37:46.459Z,40.73
2019-01-31T10:38:45.558Z,40.67
2019-01-31T10:39:47.202Z,40.64
2019-01-31T10:40:45.702Z,40.67
2019-01-31T10:41:45.466Z,40.64
2019-01-31T10:42:52.586Z,40.68
2019-01-31T10:43:46.070Z,40.64
2019-01-31T10:44:45.371Z,40.64
2019-01-31T10:45:45.865Z,40.79
2019-01-31T10:46:45.530Z,40.78
2019-01-31T10:47:45.947Z,40.85
2019-01-31T10:48:45.610Z,40.85
2019-01-31T10:49:46.224Z,40.83
2019-01-31T10:50:45.982Z,40.91
2019-01-31T10:51:45.277Z,40.9
2019-01-31T10:52:45.135Z,40.93
2019-01-31T10:53:45.523Z,40.85
2019-01-31T10:54:45.554Z,40.79
2019-01-31T10:55:45.671Z,40.67
2019-01-31T10:56:45.579Z,40.68
2019-01-31T10:57:45.549Z,40.64
2019-01-31T10:58:45.224Z,40.64
2019-01-31T10:59:45.478Z,40.63
2019-01-31T11:00:45.871Z,40.64
2019-01-31T11:01:45.180Z,40.61
2019-01-31T11:02:48.256Z,40.59
2019-01-31T11:03:45.317Z,40.59
2019-01-31T11:04:45.290Z,40.53
2019-01-31T11:05:45.544Z,40.56
2019-01-31T11:06:45.386Z,40.57
2019-01-31T11:07:45.571Z,40.53
2019-01-31T11:08:45.358Z,40.56
2019-01-31T11:09:45.279Z,40.56
2019-01-31T11:10:45.436Z,40.49
2019-01-31T11:11:45.315Z,40.53
2019-01-31T11:12:44.996Z,40.53
2019-01-31T11:13:45.346Z,40.51
2019-01-31T11:14:45.365Z,40.49
2019-01-31T11:15:45.023Z,40.51
2019-01-31T11:16:45.387Z,40.51
2019-01-31T11:17:45.385Z,40.45
2019-01-31T11:18:45.441Z,40.52
2019-01-31T11:19:45.374Z,40.53
2019-01-31T11:20:45.260Z,40.48
2019-01-31T11:21:45.467Z,40.51
2019-01-31T11:22:45.330Z,40.47
2019-01-31T11:23:45.158Z,40.51
2019-01-31T11:24:45.257Z,40.67
2019-01-31T11:25:45.287Z,40.89
2019-01-31T11:26:45.385Z,41.02
2019-01-31T11:27:45.393Z,41.31
2019-01-31T11:28:45.388Z,41.57
2019-01-31T11:29:45.182Z,41.34
2019-01-31T11:30:45.204Z,40.96
2019-01-31T11:31:45.295Z,40.74
2019-01-31T11:32:45.429Z,40.74
2019-01-31T11:33:45.327Z,40.79
2019-01-31T11:34:45.437Z,40.69
2019-01-31T11:35:46.473Z,40.71
2019-01-31T11:36:45.737Z,40.67
2019-01-31T11:37:45.852Z,40.64
2019-01-31T11:38:45.280Z,40.63
2019-01-31T11:39:45.243Z,40.67
2019-01-31T11:40:45.764Z,40.64
2019-01-31T11:41:45.432Z,40.6
2019-01-31T11:42:47.171Z,40.61
2019-01-31T11:43:45.177Z,40.61
2019-01-31T11:44:45.626Z,40.59
2019-01-31T11:45:45.816Z,40.56
2019-01-31T11:46:47.050Z,40.6
2019-01-31T11:47:46.259Z,40.55
2019-01-31T11:48:45.174Z,40.59
2019-01-31T11:49:45.539Z,40.55
2019-01-31T11:50:45.443Z,40.51
2019-01-31T11:51:45.299Z,40.52
2019-01-31T11:52:48.138Z,40.54
2019-01-31T11:53:45.301Z,40.56
2019-01-31T11:54:45.114Z,40.54
2019-01-31T11:55:45.462Z,40.48
2019-01-31T11:56:46.092Z,40.52
2019-01-31T11:57:45.177Z,40.46
2019-01-31T11:58:45.345Z,40.51
2019-01-31T11:59:45.816Z,40.51
2019-01-31T12:00:45.525Z,40.48
2019-01-31T12:01:45.458Z,40.5
2019-01-31T12:02:55.606Z,40.5
2019-01-31T12:03:46.469Z,40.58
2019-01-31T12:04:45.344Z,40.52
2019-01-31T12:05:45.491Z,40.52
2019-01-31T12:06:45.160Z,40.53
2019-01-31T12:07:45.069Z,40.55
2019-01-31T12:08:45.547Z,40.59
2019-01-31T12:09:45.380Z,40.53
2019-01-31T12:10:45.595Z,40.57
2019-01-31T12:11:45.887Z,40.55
2019-01-31T12:12:45.472Z,40.55
2019-01-31T12:13:45.805Z,40.56
2019-01-31T12:14:45.927Z,40.55
2019-01-31T12:15:45.026Z,40.55
2019-01-31T12:16:46.311Z,40.57
2019-01-31T12:17:45.284Z,40.56
2019-01-31T12:18:45.091Z,40.52
2019-01-31T12:19:45.309Z,40.55
2019-01-31T12:20:45.067Z,40.57
2019-01-31T12:21:45.984Z,40.53
2019-01-31T12:22:45.564Z,40.55
2019-01-31T12:23:46.202Z,40.57
2019-01-31T12:24:45.491Z,40.53
2019-01-31T12:25:45.619Z,40.55
2019-01-31T12:26:47.013Z,40.53
2019-01-31T12:27:45.530Z,40.51
2019-01-31T12:28:45.326Z,40.52
2019-01-31T12:29:45.135Z,40.55
2019-01-31T12:30:45.244Z,40.55
2019-01-31T12:31:45.177Z,40.57
2019-01-31T12:32:45.271Z,40.55
2019-01-31T12:33:45.854Z,40.52
2019-01-31T12:34:45.458Z,40.55
2019-01-31T12:35:45.197Z,40.52
2019-01-31T12:36:46.075Z,40.51
2019-01-31T12:37:45.463Z,40.49
2019-01-31T12:38:45.607Z,40.52
2019-01-31T12:39:45.394Z,40.52
2019-01-31T12:40:45.772Z,40.55
2019-01-31T12:41:45.355Z,40.53
2019-01-31T12:42:45.407Z,40.56
2019-01-31T12:43:45.734Z,40.55
2019-01-31T12:44:45.536Z,40.59
2019-01-31T12:45:45.152Z,40.51
2019-01-31T12:46:45.159Z,40.83
2019-01-31T12:47:45.395Z,40.85
2019-01-31T12:48:45.511Z,40.96
2019-01-31T12:49:45.286Z,41.1
2019-01-31T12:50:45.496Z,41.08
2019-01-31T12:51:45.230Z,41.18
2019-01-31T12:52:45.545Z,41.13
2019-01-31T12:53:45.077Z,41.17
2019-01-31T12:54:45.106Z,41.25